sensor_id;sensor_type;location;lat;lon;timestamp;P1;durP1;ratioP1;P2;durP2;ratioP2
62927;SDS011;51070;52.236;-0.892;2024-01-16T00:02:21;5.70;;;3.50;;
62927;SDS011;51070;52.236;-0.892;2024-01-16T00:04:47;4.90;;;3.20;;
62927;SDS011;51070;52.236;-0.892;2024-01-16T00:07:12;5.20;;;2.70;;
62927;SDS011;51070;52.236;-0.892;2024-01-16T00:09:38;6.50;;;4.10;;
62927;SDS011;51070;52.236;-0.892;2024-01-16T00:12:03;6.10;;;3.80;;
62927;SDS011;51070;52.236;-0.892;2024-01-16T00:14:29;6.60;;;3.50;;
62927;SDS011;51070;52.236;-0.892;2024-01-16T00:16:55;6.00;;;3.00;;
62927;SDS011;51070;52.236;-0.892;2024-01-16T00:19:20;5.30;;;3.20;;
62927;SDS011;51070;52.236;-0.892;2024-01-16T00:21:46;6.30;;;3.00;;
62927;SDS011;51070;52.236;-0.892;2024-01-16T00:24:12;8.40;;;3.40;;
62927;SDS011;51070;52.236;-0.892;2024-01-16T00:26:38;4.80;;;2.90;;
62927;SDS011;51070;52.236;-0.892;2024-01-16T00:29:03;6.50;;;3.10;;
62927;SDS011;51070;52.236;-0.892;2024-01-16T00:31:29;7.60;;;3.60;;
62927;SDS011;51070;52.236;-0.892;2024-01-16T00:33:55;5.50;;;2.90;;
62927;SDS011;51070;52.236;-0.892;2024-01-16T00:36:20;5.70;;;2.00;;
62927;SDS011;51070;52.236;-0.892;2024-01-16T00:38:45;7.00;;;2.90;;
62927;SDS011;51070;52.236;-0.892;2024-01-16T00:41:12;7.80;;;3.60;;
62927;SDS011;51070;52.236;-0.892;2024-01-16T00:43:39;8.20;;;3.50;;
62927;SDS011;51070;52.236;-0.892;2024-01-16T00:46:05;6.30;;;2.70;;
62927;SDS011;51070;52.236;-0.892;2024-01-16T00:48:30;6.50;;;3.70;;
62927;SDS011;51070;52.236;-0.892;2024-01-16T00:50:56;6.40;;;2.80;;
62927;SDS011;51070;52.236;-0.892;2024-01-16T00:53:21;6.70;;;2.40;;
62927;SDS011;51070;52.236;-0.892;2024-01-16T00:55:46;7.20;;;3.30;;
62927;SDS011;51070;52.236;-0.892;2024-01-16T00:58:12;5.60;;;2.90;;
62927;SDS011;51070;52.236;-0.892;2024-01-16T01:00:37;8.60;;;4.30;;
62927;SDS011;51070;52.236;-0.892;2024-01-16T01:03:03;5.60;;;2.80;;
62927;SDS011;51070;52.236;-0.892;2024-01-16T01:05:29;4.50;;;2.20;;
62927;SDS011;51070;52.236;-0.892;2024-01-16T01:07:55;4.90;;;2.60;;
62927;SDS011;51070;52.236;-0.892;2024-01-16T01:10:21;4.40;;;2.50;;
62927;SDS011;51070;52.236;-0.892;2024-01-16T01:12:46;4.90;;;2.40;;
62927;SDS011;51070;52.236;-0.892;2024-01-16T01:15:12;6.50;;;3.30;;
62927;SDS011;51070;52.236;-0.892;2024-01-16T01:17:39;5.60;;;3.30;;
62927;SDS011;51070;52.236;-0.892;2024-01-16T01:20:05;6.10;;;3.20;;
62927;SDS011;51070;52.236;-0.892;2024-01-16T01:22:31;5.50;;;3.40;;
62927;SDS011;51070;52.236;-0.892;2024-01-16T01:24:57;6.30;;;3.10;;
62927;SDS011;51070;52.236;-0.892;2024-01-16T01:27:23;6.20;;;3.30;;
62927;SDS011;51070;52.236;-0.892;2024-01-16T01:29:48;6.10;;;3.20;;
62927;SDS011;51070;52.236;-0.892;2024-01-16T01:32:13;6.00;;;3.20;;
62927;SDS011;51070;52.236;-0.892;2024-01-16T01:34:41;8.30;;;3.20;;
62927;SDS011;51070;52.236;-0.892;2024-01-16T01:37:07;6.70;;;3.40;;
62927;SDS011;51070;52.236;-0.892;2024-01-16T01:39:32;8.70;;;3.40;;
62927;SDS011;51070;52.236;-0.892;2024-01-16T01:41:58;7.60;;;3.00;;
62927;SDS011;51070;52.236;-0.892;2024-01-16T01:44:23;6.70;;;3.60;;
62927;SDS011;51070;52.236;-0.892;2024-01-16T01:46:50;4.70;;;2.90;;
62927;SDS011;51070;52.236;-0.892;2024-01-16T01:49:16;7.10;;;3.50;;
62927;SDS011;51070;52.236;-0.892;2024-01-16T01:51:42;5.20;;;3.00;;
62927;SDS011;51070;52.236;-0.892;2024-01-16T01:54:08;4.30;;;2.70;;
62927;SDS011;51070;52.236;-0.892;2024-01-16T01:56:35;6.90;;;3.10;;
62927;SDS011;51070;52.236;-0.892;2024-01-16T01:59:01;6.30;;;3.00;;
62927;SDS011;51070;52.236;-0.892;2024-01-16T02:01:28;5.50;;;3.20;;
62927;SDS011;51070;52.236;-0.892;2024-01-16T02:03:56;10.60;;;3.50;;
62927;SDS011;51070;52.236;-0.892;2024-01-16T02:06:24;6.50;;;3.60;;
62927;SDS011;51070;52.236;-0.892;2024-01-16T02:08:50;6.40;;;3.60;;
62927;SDS011;51070;52.236;-0.892;2024-01-16T02:11:16;7.40;;;3.40;;
62927;SDS011;51070;52.236;-0.892;2024-01-16T02:13:42;8.30;;;4.40;;
62927;SDS011;51070;52.236;-0.892;2024-01-16T02:16:20;8.30;;;3.30;;
62927;SDS011;51070;52.236;-0.892;2024-01-16T02:18:47;7.10;;;3.30;;
62927;SDS011;51070;52.236;-0.892;2024-01-16T02:21:13;5.40;;;3.00;;
62927;SDS011;51070;52.236;-0.892;2024-01-16T02:23:43;9.60;;;3.20;;
62927;SDS011;51070;52.236;-0.892;2024-01-16T02:26:09;7.30;;;3.70;;
62927;SDS011;51070;52.236;-0.892;2024-01-16T02:28:35;3.40;;;2.30;;
62927;SDS011;51070;52.236;-0.892;2024-01-16T02:31:00;8.80;;;3.30;;
62927;SDS011;51070;52.236;-0.892;2024-01-16T02:33:26;12.30;;;4.50;;
62927;SDS011;51070;52.236;-0.892;2024-01-16T02:35:51;4.80;;;2.80;;
62927;SDS011;51070;52.236;-0.892;2024-01-16T02:38:16;9.80;;;5.00;;
62927;SDS011;51070;52.236;-0.892;2024-01-16T02:40:42;6.20;;;4.20;;
62927;SDS011;51070;52.236;-0.892;2024-01-16T02:43:07;6.50;;;3.80;;
62927;SDS011;51070;52.236;-0.892;2024-01-16T02:45:33;9.70;;;4.00;;
62927;SDS011;51070;52.236;-0.892;2024-01-16T02:47:59;6.90;;;4.00;;
62927;SDS011;51070;52.236;-0.892;2024-01-16T02:50:24;7.30;;;3.90;;
62927;SDS011;51070;52.236;-0.892;2024-01-16T02:52:50;9.10;;;4.30;;
62927;SDS011;51070;52.236;-0.892;2024-01-16T02:55:16;5.70;;;3.90;;
62927;SDS011;51070;52.236;-0.892;2024-01-16T02:57:41;15.00;;;4.60;;
62927;SDS011;51070;52.236;-0.892;2024-01-16T03:00:07;9.00;;;4.00;;
62927;SDS011;51070;52.236;-0.892;2024-01-16T03:02:33;5.60;;;3.60;;
62927;SDS011;51070;52.236;-0.892;2024-01-16T03:04:59;6.20;;;3.40;;
62927;SDS011;51070;52.236;-0.892;2024-01-16T03:07:24;6.80;;;3.70;;
62927;SDS011;51070;52.236;-0.892;2024-01-16T03:09:50;8.70;;;3.80;;
62927;SDS011;51070;52.236;-0.892;2024-01-16T03:12:16;5.70;;;3.70;;
62927;SDS011;51070;52.236;-0.892;2024-01-16T03:14:42;8.10;;;3.40;;
62927;SDS011;51070;52.236;-0.892;2024-01-16T03:17:07;5.40;;;3.30;;
62927;SDS011;51070;52.236;-0.892;2024-01-16T03:19:33;5.60;;;3.20;;
62927;SDS011;51070;52.236;-0.892;2024-01-16T03:21:58;6.50;;;3.70;;
62927;SDS011;51070;52.236;-0.892;2024-01-16T03:24:24;7.70;;;3.60;;
62927;SDS011;51070;52.236;-0.892;2024-01-16T03:26:49;8.20;;;3.80;;
62927;SDS011;51070;52.236;-0.892;2024-01-16T03:29:14;9.90;;;4.40;;
62927;SDS011;51070;52.236;-0.892;2024-01-16T03:31:40;13.10;;;4.10;;
62927;SDS011;51070;52.236;-0.892;2024-01-16T03:34:05;7.90;;;3.90;;
62927;SDS011;51070;52.236;-0.892;2024-01-16T03:36:33;7.50;;;3.80;;
62927;SDS011;51070;52.236;-0.892;2024-01-16T03:38:59;8.20;;;4.00;;
62927;SDS011;51070;52.236;-0.892;2024-01-16T03:41:24;7.30;;;4.00;;
62927;SDS011;51070;52.236;-0.892;2024-01-16T03:43:50;6.40;;;3.70;;
62927;SDS011;51070;52.236;-0.892;2024-01-16T03:46:15;6.50;;;4.20;;
62927;SDS011;51070;52.236;-0.892;2024-01-16T03:48:40;8.50;;;3.30;;
62927;SDS011;51070;52.236;-0.892;2024-01-16T03:51:06;6.90;;;3.80;;
62927;SDS011;51070;52.236;-0.892;2024-01-16T03:53:34;8.70;;;4.00;;
62927;SDS011;51070;52.236;-0.892;2024-01-16T03:56:00;7.50;;;3.90;;
62927;SDS011;51070;52.236;-0.892;2024-01-16T03:58:25;5.20;;;3.20;;
62927;SDS011;51070;52.236;-0.892;2024-01-16T04:00:50;9.80;;;3.80;;
62927;SDS011;51070;52.236;-0.892;2024-01-16T04:03:18;4.50;;;3.30;;
62927;SDS011;51070;52.236;-0.892;2024-01-16T04:05:43;6.40;;;4.00;;
62927;SDS011;51070;52.236;-0.892;2024-01-16T04:08:09;5.80;;;3.10;;
62927;SDS011;51070;52.236;-0.892;2024-01-16T04:10:34;5.30;;;3.90;;
62927;SDS011;51070;52.236;-0.892;2024-01-16T04:13:01;5.70;;;2.90;;
62927;SDS011;51070;52.236;-0.892;2024-01-16T04:15:27;5.60;;;3.80;;
62927;SDS011;51070;52.236;-0.892;2024-01-16T04:17:52;6.30;;;3.30;;
62927;SDS011;51070;52.236;-0.892;2024-01-16T04:20:17;4.60;;;2.90;;
62927;SDS011;51070;52.236;-0.892;2024-01-16T04:22:43;5.10;;;2.50;;
62927;SDS011;51070;52.236;-0.892;2024-01-16T04:25:08;7.10;;;3.50;;
62927;SDS011;51070;52.236;-0.892;2024-01-16T04:27:34;6.20;;;3.10;;
62927;SDS011;51070;52.236;-0.892;2024-01-16T04:30:00;9.40;;;3.10;;
62927;SDS011;51070;52.236;-0.892;2024-01-16T04:32:25;6.20;;;2.90;;
62927;SDS011;51070;52.236;-0.892;2024-01-16T04:34:51;10.70;;;3.60;;
62927;SDS011;51070;52.236;-0.892;2024-01-16T04:37:16;6.70;;;3.60;;
62927;SDS011;51070;52.236;-0.892;2024-01-16T04:39:42;6.60;;;3.70;;
62927;SDS011;51070;52.236;-0.892;2024-01-16T04:42:07;8.90;;;4.30;;
62927;SDS011;51070;52.236;-0.892;2024-01-16T04:44:32;8.90;;;3.80;;
62927;SDS011;51070;52.236;-0.892;2024-01-16T04:46:58;11.20;;;4.60;;
62927;SDS011;51070;52.236;-0.892;2024-01-16T04:49:23;7.80;;;4.10;;
62927;SDS011;51070;52.236;-0.892;2024-01-16T04:51:49;8.30;;;4.10;;
62927;SDS011;51070;52.236;-0.892;2024-01-16T04:54:14;6.50;;;3.20;;
62927;SDS011;51070;52.236;-0.892;2024-01-16T04:56:39;9.40;;;3.70;;
62927;SDS011;51070;52.236;-0.892;2024-01-16T04:59:05;8.80;;;4.00;;
62927;SDS011;51070;52.236;-0.892;2024-01-16T05:01:30;6.00;;;3.20;;
62927;SDS011;51070;52.236;-0.892;2024-01-16T05:03:56;7.10;;;3.30;;
62927;SDS011;51070;52.236;-0.892;2024-01-16T05:06:21;4.20;;;2.60;;
62927;SDS011;51070;52.236;-0.892;2024-01-16T05:08:47;7.30;;;3.40;;
62927;SDS011;51070;52.236;-0.892;2024-01-16T05:11:12;4.50;;;3.10;;
62927;SDS011;51070;52.236;-0.892;2024-01-16T05:13:38;6.50;;;3.10;;
62927;SDS011;51070;52.236;-0.892;2024-01-16T05:16:03;5.60;;;3.40;;
62927;SDS011;51070;52.236;-0.892;2024-01-16T05:18:30;5.70;;;3.00;;
62927;SDS011;51070;52.236;-0.892;2024-01-16T05:20:58;6.00;;;2.40;;
62927;SDS011;51070;52.236;-0.892;2024-01-16T05:23:23;5.10;;;3.10;;
62927;SDS011;51070;52.236;-0.892;2024-01-16T05:25:49;6.40;;;3.40;;
62927;SDS011;51070;52.236;-0.892;2024-01-16T05:28:14;5.90;;;2.80;;
62927;SDS011;51070;52.236;-0.892;2024-01-16T05:30:40;8.50;;;3.40;;
62927;SDS011;51070;52.236;-0.892;2024-01-16T05:33:05;7.20;;;4.20;;
62927;SDS011;51070;52.236;-0.892;2024-01-16T05:35:32;6.90;;;3.30;;
62927;SDS011;51070;52.236;-0.892;2024-01-16T05:37:57;5.00;;;2.60;;
62927;SDS011;51070;52.236;-0.892;2024-01-16T05:40:24;4.60;;;3.30;;
62927;SDS011;51070;52.236;-0.892;2024-01-16T05:42:50;8.30;;;3.00;;
62927;SDS011;51070;52.236;-0.892;2024-01-16T05:45:16;5.60;;;3.20;;
62927;SDS011;51070;52.236;-0.892;2024-01-16T05:47:42;5.90;;;3.30;;
62927;SDS011;51070;52.236;-0.892;2024-01-16T05:50:11;6.70;;;2.70;;
62927;SDS011;51070;52.236;-0.892;2024-01-16T05:52:36;4.50;;;2.70;;
62927;SDS011;51070;52.236;-0.892;2024-01-16T05:55:02;3.50;;;2.20;;
62927;SDS011;51070;52.236;-0.892;2024-01-16T05:57:28;3.60;;;1.90;;
62927;SDS011;51070;52.236;-0.892;2024-01-16T05:59:58;5.70;;;2.70;;
62927;SDS011;51070;52.236;-0.892;2024-01-16T06:02:24;4.30;;;2.70;;
62927;SDS011;51070;52.236;-0.892;2024-01-16T06:04:49;4.90;;;2.10;;
62927;SDS011;51070;52.236;-0.892;2024-01-16T06:07:15;5.20;;;2.30;;
62927;SDS011;51070;52.236;-0.892;2024-01-16T06:09:40;3.00;;;2.40;;
62927;SDS011;51070;52.236;-0.892;2024-01-16T06:12:07;8.10;;;2.40;;
62927;SDS011;51070;52.236;-0.892;2024-01-16T06:14:33;6.90;;;3.00;;
62927;SDS011;51070;52.236;-0.892;2024-01-16T06:16:59;4.50;;;2.50;;
62927;SDS011;51070;52.236;-0.892;2024-01-16T06:19:25;5.40;;;2.30;;
62927;SDS011;51070;52.236;-0.892;2024-01-16T06:21:51;5.80;;;2.90;;
62927;SDS011;51070;52.236;-0.892;2024-01-16T06:24:16;7.90;;;3.20;;
62927;SDS011;51070;52.236;-0.892;2024-01-16T06:26:41;6.40;;;3.00;;
62927;SDS011;51070;52.236;-0.892;2024-01-16T06:29:10;5.60;;;3.50;;
62927;SDS011;51070;52.236;-0.892;2024-01-16T06:31:35;7.20;;;3.20;;
62927;SDS011;51070;52.236;-0.892;2024-01-16T06:34:01;4.40;;;2.40;;
62927;SDS011;51070;52.236;-0.892;2024-01-16T06:36:26;3.40;;;2.40;;
62927;SDS011;51070;52.236;-0.892;2024-01-16T06:38:52;6.60;;;3.20;;
62927;SDS011;51070;52.236;-0.892;2024-01-16T06:41:18;7.40;;;3.70;;
62927;SDS011;51070;52.236;-0.892;2024-01-16T06:43:43;5.60;;;2.40;;
62927;SDS011;51070;52.236;-0.892;2024-01-16T06:46:09;7.20;;;3.30;;
62927;SDS011;51070;52.236;-0.892;2024-01-16T06:48:35;6.10;;;2.70;;
62927;SDS011;51070;52.236;-0.892;2024-01-16T06:51:05;3.60;;;1.80;;
62927;SDS011;51070;52.236;-0.892;2024-01-16T06:53:30;3.90;;;2.20;;
62927;SDS011;51070;52.236;-0.892;2024-01-16T06:55:56;11.40;;;3.10;;
62927;SDS011;51070;52.236;-0.892;2024-01-16T06:58:22;4.00;;;2.20;;
62927;SDS011;51070;52.236;-0.892;2024-01-16T07:00:47;4.50;;;2.30;;
62927;SDS011;51070;52.236;-0.892;2024-01-16T07:03:13;4.10;;;2.90;;
62927;SDS011;51070;52.236;-0.892;2024-01-16T07:05:39;6.50;;;2.60;;
62927;SDS011;51070;52.236;-0.892;2024-01-16T07:08:08;6.60;;;2.60;;
62927;SDS011;51070;52.236;-0.892;2024-01-16T07:10:34;5.20;;;2.60;;
62927;SDS011;51070;52.236;-0.892;2024-01-16T07:13:00;9.70;;;3.40;;
62927;SDS011;51070;52.236;-0.892;2024-01-16T07:15:28;5.10;;;2.60;;
62927;SDS011;51070;52.236;-0.892;2024-01-16T07:17:53;5.80;;;2.60;;
62927;SDS011;51070;52.236;-0.892;2024-01-16T07:20:19;5.20;;;2.40;;
62927;SDS011;51070;52.236;-0.892;2024-01-16T07:22:45;5.00;;;2.90;;
62927;SDS011;51070;52.236;-0.892;2024-01-16T07:25:11;4.80;;;2.20;;
62927;SDS011;51070;52.236;-0.892;2024-01-16T07:27:36;4.50;;;2.30;;
62927;SDS011;51070;52.236;-0.892;2024-01-16T07:30:05;4.50;;;2.60;;
62927;SDS011;51070;52.236;-0.892;2024-01-16T07:32:31;5.20;;;2.40;;
62927;SDS011;51070;52.236;-0.892;2024-01-16T07:34:57;5.70;;;2.60;;
62927;SDS011;51070;52.236;-0.892;2024-01-16T07:37:22;7.70;;;3.00;;
62927;SDS011;51070;52.236;-0.892;2024-01-16T07:39:48;7.10;;;3.30;;
62927;SDS011;51070;52.236;-0.892;2024-01-16T07:42:13;4.20;;;2.50;;
62927;SDS011;51070;52.236;-0.892;2024-01-16T07:44:39;5.00;;;2.30;;
62927;SDS011;51070;52.236;-0.892;2024-01-16T07:47:05;5.00;;;2.70;;
62927;SDS011;51070;52.236;-0.892;2024-01-16T07:49:30;6.00;;;2.60;;
62927;SDS011;51070;52.236;-0.892;2024-01-16T07:51:56;5.00;;;2.40;;
62927;SDS011;51070;52.236;-0.892;2024-01-16T07:54:21;6.80;;;3.10;;
62927;SDS011;51070;52.236;-0.892;2024-01-16T07:56:47;5.20;;;2.20;;
62927;SDS011;51070;52.236;-0.892;2024-01-16T07:59:12;4.80;;;2.40;;
62927;SDS011;51070;52.236;-0.892;2024-01-16T08:01:39;5.30;;;2.40;;
62927;SDS011;51070;52.236;-0.892;2024-01-16T08:04:04;3.70;;;1.90;;
62927;SDS011;51070;52.236;-0.892;2024-01-16T08:06:29;5.70;;;2.40;;
62927;SDS011;51070;52.236;-0.892;2024-01-16T08:08:55;3.00;;;2.00;;
62927;SDS011;51070;52.236;-0.892;2024-01-16T08:11:21;3.40;;;2.20;;
62927;SDS011;51070;52.236;-0.892;2024-01-16T08:13:46;2.90;;;1.70;;
62927;SDS011;51070;52.236;-0.892;2024-01-16T08:16:12;4.70;;;2.20;;
62927;SDS011;51070;52.236;-0.892;2024-01-16T08:18:37;2.90;;;1.60;;
62927;SDS011;51070;52.236;-0.892;2024-01-16T08:21:03;3.60;;;2.10;;
62927;SDS011;51070;52.236;-0.892;2024-01-16T08:23:28;6.70;;;2.70;;
62927;SDS011;51070;52.236;-0.892;2024-01-16T08:25:54;5.10;;;2.30;;
62927;SDS011;51070;52.236;-0.892;2024-01-16T08:28:19;3.10;;;2.10;;
62927;SDS011;51070;52.236;-0.892;2024-01-16T08:30:45;4.20;;;2.30;;
62927;SDS011;51070;52.236;-0.892;2024-01-16T08:33:11;4.10;;;2.30;;
62927;SDS011;51070;52.236;-0.892;2024-01-16T08:35:37;3.30;;;2.40;;
62927;SDS011;51070;52.236;-0.892;2024-01-16T08:38:03;4.80;;;2.90;;
62927;SDS011;51070;52.236;-0.892;2024-01-16T08:40:29;4.70;;;2.50;;
62927;SDS011;51070;52.236;-0.892;2024-01-16T08:42:55;7.20;;;3.10;;
62927;SDS011;51070;52.236;-0.892;2024-01-16T08:45:21;3.10;;;1.90;;
62927;SDS011;51070;52.236;-0.892;2024-01-16T08:47:47;4.30;;;2.40;;
62927;SDS011;51070;52.236;-0.892;2024-01-16T08:50:12;4.90;;;2.70;;
62927;SDS011;51070;52.236;-0.892;2024-01-16T08:52:38;3.50;;;2.40;;
62927;SDS011;51070;52.236;-0.892;2024-01-16T08:55:04;5.30;;;2.10;;
62927;SDS011;51070;52.236;-0.892;2024-01-16T08:57:30;5.40;;;3.00;;
62927;SDS011;51070;52.236;-0.892;2024-01-16T08:59:55;5.70;;;2.80;;
62927;SDS011;51070;52.236;-0.892;2024-01-16T09:02:20;7.40;;;3.00;;
62927;SDS011;51070;52.236;-0.892;2024-01-16T09:04:47;6.90;;;3.30;;
62927;SDS011;51070;52.236;-0.892;2024-01-16T09:07:15;5.40;;;2.40;;
62927;SDS011;51070;52.236;-0.892;2024-01-16T09:09:41;3.80;;;2.90;;
62927;SDS011;51070;52.236;-0.892;2024-01-16T09:12:10;6.80;;;2.90;;
62927;SDS011;51070;52.236;-0.892;2024-01-16T09:14:36;4.60;;;1.60;;
62927;SDS011;51070;52.236;-0.892;2024-01-16T09:17:01;3.60;;;1.90;;
62927;SDS011;51070;52.236;-0.892;2024-01-16T09:19:28;4.50;;;2.40;;
62927;SDS011;51070;52.236;-0.892;2024-01-16T09:21:54;2.80;;;1.70;;
62927;SDS011;51070;52.236;-0.892;2024-01-16T09:24:20;4.80;;;2.20;;
62927;SDS011;51070;52.236;-0.892;2024-01-16T09:26:46;1.60;;;1.50;;
62927;SDS011;51070;52.236;-0.892;2024-01-16T09:29:12;4.20;;;2.50;;
62927;SDS011;51070;52.236;-0.892;2024-01-16T09:31:39;4.30;;;3.00;;
62927;SDS011;51070;52.236;-0.892;2024-01-16T09:34:05;4.30;;;2.40;;
62927;SDS011;51070;52.236;-0.892;2024-01-16T09:36:31;7.90;;;3.10;;
62927;SDS011;51070;52.236;-0.892;2024-01-16T09:38:56;9.30;;;3.00;;
62927;SDS011;51070;52.236;-0.892;2024-01-16T09:41:22;8.50;;;3.30;;
62927;SDS011;51070;52.236;-0.892;2024-01-16T09:43:49;4.70;;;2.40;;
62927;SDS011;51070;52.236;-0.892;2024-01-16T09:46:16;4.10;;;2.20;;
62927;SDS011;51070;52.236;-0.892;2024-01-16T09:48:45;5.90;;;2.40;;
62927;SDS011;51070;52.236;-0.892;2024-01-16T09:51:12;3.70;;;2.10;;
62927;SDS011;51070;52.236;-0.892;2024-01-16T09:53:40;5.70;;;2.80;;
62927;SDS011;51070;52.236;-0.892;2024-01-16T09:56:11;6.70;;;3.10;;
62927;SDS011;51070;52.236;-0.892;2024-01-16T09:58:44;7.60;;;3.00;;
62927;SDS011;51070;52.236;-0.892;2024-01-16T10:01:13;5.30;;;3.40;;
62927;SDS011;51070;52.236;-0.892;2024-01-16T10:03:41;5.50;;;2.70;;
62927;SDS011;51070;52.236;-0.892;2024-01-16T10:06:10;7.50;;;3.20;;
62927;SDS011;51070;52.236;-0.892;2024-01-16T10:08:37;7.20;;;3.70;;
62927;SDS011;51070;52.236;-0.892;2024-01-16T10:11:03;5.20;;;2.80;;
62927;SDS011;51070;52.236;-0.892;2024-01-16T10:13:29;5.00;;;2.70;;
62927;SDS011;51070;52.236;-0.892;2024-01-16T10:15:54;4.90;;;3.00;;
62927;SDS011;51070;52.236;-0.892;2024-01-16T10:18:23;7.30;;;2.80;;
62927;SDS011;51070;52.236;-0.892;2024-01-16T10:20:49;4.90;;;2.70;;
62927;SDS011;51070;52.236;-0.892;2024-01-16T10:23:22;5.80;;;2.70;;
62927;SDS011;51070;52.236;-0.892;2024-01-16T10:28:32;7.80;;;2.90;;
62927;SDS011;51070;52.236;-0.892;2024-01-16T10:31:02;5.80;;;2.80;;
62927;SDS011;51070;52.236;-0.892;2024-01-16T10:33:28;5.80;;;3.00;;
62927;SDS011;51070;52.236;-0.892;2024-01-16T10:36:10;5.60;;;3.10;;
62927;SDS011;51070;52.236;-0.892;2024-01-16T10:38:41;4.60;;;2.20;;
62927;SDS011;51070;52.236;-0.892;2024-01-16T10:41:15;6.70;;;2.80;;
62927;SDS011;51070;52.236;-0.892;2024-01-16T10:43:42;4.70;;;2.30;;
62927;SDS011;51070;52.236;-0.892;2024-01-16T10:48:38;5.10;;;2.40;;
62927;SDS011;51070;52.236;-0.892;2024-01-16T10:51:09;3.20;;;1.80;;
62927;SDS011;51070;52.236;-0.892;2024-01-16T10:53:45;4.40;;;1.70;;
62927;SDS011;51070;52.236;-0.892;2024-01-16T10:56:11;4.70;;;1.80;;
62927;SDS011;51070;52.236;-0.892;2024-01-16T10:58:41;4.00;;;1.90;;
62927;SDS011;51070;52.236;-0.892;2024-01-16T11:01:10;1.80;;;1.40;;
62927;SDS011;51070;52.236;-0.892;2024-01-16T11:06:06;4.20;;;2.30;;
62927;SDS011;51070;52.236;-0.892;2024-01-16T11:08:36;4.40;;;1.70;;
62927;SDS011;51070;52.236;-0.892;2024-01-16T11:11:02;6.10;;;2.00;;
62927;SDS011;51070;52.236;-0.892;2024-01-16T11:13:35;4.90;;;2.00;;
62927;SDS011;51070;52.236;-0.892;2024-01-16T11:16:04;4.40;;;2.10;;
62927;SDS011;51070;52.236;-0.892;2024-01-16T11:18:31;9.40;;;2.10;;
62927;SDS011;51070;52.236;-0.892;2024-01-16T11:21:00;4.50;;;1.60;;
62927;SDS011;51070;52.236;-0.892;2024-01-16T11:23:29;5.60;;;1.90;;
62927;SDS011;51070;52.236;-0.892;2024-01-16T11:25:55;5.00;;;2.10;;
62927;SDS011;51070;52.236;-0.892;2024-01-16T11:28:20;6.90;;;2.40;;
62927;SDS011;51070;52.236;-0.892;2024-01-16T11:30:53;7.10;;;1.90;;
62927;SDS011;51070;52.236;-0.892;2024-01-16T11:33:41;9.60;;;2.20;;
62927;SDS011;51070;52.236;-0.892;2024-01-16T11:36:19;4.00;;;1.80;;
62927;SDS011;51070;52.236;-0.892;2024-01-16T11:39:16;7.50;;;2.40;;
62927;SDS011;51070;52.236;-0.892;2024-01-16T11:41:56;4.70;;;1.60;;
62927;SDS011;51070;52.236;-0.892;2024-01-16T11:47:20;6.70;;;2.00;;
62927;SDS011;51070;52.236;-0.892;2024-01-16T11:49:47;5.40;;;2.40;;
62927;SDS011;51070;52.236;-0.892;2024-01-16T11:52:13;4.10;;;2.00;;
62927;SDS011;51070;52.236;-0.892;2024-01-16T11:54:39;6.80;;;1.80;;
62927;SDS011;51070;52.236;-0.892;2024-01-16T12:00:33;8.70;;;2.60;;
62927;SDS011;51070;52.236;-0.892;2024-01-16T12:02:58;10.50;;;2.90;;
62927;SDS011;51070;52.236;-0.892;2024-01-16T12:05:28;9.20;;;2.50;;
62927;SDS011;51070;52.236;-0.892;2024-01-16T12:07:54;7.10;;;2.40;;
62927;SDS011;51070;52.236;-0.892;2024-01-16T12:10:20;4.60;;;2.20;;
62927;SDS011;51070;52.236;-0.892;2024-01-16T12:12:48;8.60;;;2.40;;
62927;SDS011;51070;52.236;-0.892;2024-01-16T12:15:18;4.70;;;2.10;;
62927;SDS011;51070;52.236;-0.892;2024-01-16T12:18:45;3.10;;;2.10;;
62927;SDS011;51070;52.236;-0.892;2024-01-16T12:20:45;6.00;;;2.70;;
62927;SDS011;51070;52.236;-0.892;2024-01-16T12:23:10;5.20;;;2.00;;
62927;SDS011;51070;52.236;-0.892;2024-01-16T12:25:36;6.20;;;2.50;;
62927;SDS011;51070;52.236;-0.892;2024-01-16T12:28:04;4.40;;;2.40;;
62927;SDS011;51070;52.236;-0.892;2024-01-16T12:30:31;3.20;;;2.60;;
62927;SDS011;51070;52.236;-0.892;2024-01-16T12:33:07;8.80;;;3.00;;
62927;SDS011;51070;52.236;-0.892;2024-01-16T12:35:35;6.80;;;2.60;;
62927;SDS011;51070;52.236;-0.892;2024-01-16T12:38:02;4.10;;;2.70;;
62927;SDS011;51070;52.236;-0.892;2024-01-16T12:40:41;5.20;;;3.10;;
62927;SDS011;51070;52.236;-0.892;2024-01-16T12:43:11;4.90;;;2.50;;
62927;SDS011;51070;52.236;-0.892;2024-01-16T12:45:37;6.10;;;2.60;;
62927;SDS011;51070;52.236;-0.892;2024-01-16T12:48:03;7.60;;;3.20;;
62927;SDS011;51070;52.236;-0.892;2024-01-16T12:50:29;4.20;;;2.60;;
62927;SDS011;51070;52.236;-0.892;2024-01-16T12:55:28;5.10;;;2.80;;
62927;SDS011;51070;52.236;-0.892;2024-01-16T13:00:45;10.00;;;3.40;;
62927;SDS011;51070;52.236;-0.892;2024-01-16T13:03:30;8.90;;;3.70;;
62927;SDS011;51070;52.236;-0.892;2024-01-16T13:08:22;9.40;;;3.00;;
62927;SDS011;51070;52.236;-0.892;2024-01-16T13:11:08;5.50;;;2.90;;
62927;SDS011;51070;52.236;-0.892;2024-01-16T13:13:40;3.60;;;2.50;;
62927;SDS011;51070;52.236;-0.892;2024-01-16T13:16:06;4.30;;;2.90;;
62927;SDS011;51070;52.236;-0.892;2024-01-16T13:18:32;6.30;;;2.70;;
62927;SDS011;51070;52.236;-0.892;2024-01-16T13:20:59;5.10;;;2.80;;
62927;SDS011;51070;52.236;-0.892;2024-01-16T13:23:26;4.70;;;2.70;;
62927;SDS011;51070;52.236;-0.892;2024-01-16T13:25:53;5.30;;;2.80;;
62927;SDS011;51070;52.236;-0.892;2024-01-16T13:28:27;7.20;;;3.40;;
62927;SDS011;51070;52.236;-0.892;2024-01-16T13:30:53;8.70;;;2.80;;
62927;SDS011;51070;52.236;-0.892;2024-01-16T13:33:18;8.60;;;3.10;;
62927;SDS011;51070;52.236;-0.892;2024-01-16T13:35:44;9.70;;;3.80;;
62927;SDS011;51070;52.236;-0.892;2024-01-16T13:38:14;5.80;;;3.00;;
62927;SDS011;51070;52.236;-0.892;2024-01-16T13:40:41;4.60;;;2.80;;
62927;SDS011;51070;52.236;-0.892;2024-01-16T13:43:07;8.70;;;3.20;;
62927;SDS011;51070;52.236;-0.892;2024-01-16T13:45:33;3.60;;;2.80;;
62927;SDS011;51070;52.236;-0.892;2024-01-16T13:48:00;5.30;;;2.70;;
62927;SDS011;51070;52.236;-0.892;2024-01-16T13:50:26;6.10;;;2.80;;
62927;SDS011;51070;52.236;-0.892;2024-01-16T13:52:52;4.70;;;2.70;;
62927;SDS011;51070;52.236;-0.892;2024-01-16T13:55:19;6.40;;;2.80;;
62927;SDS011;51070;52.236;-0.892;2024-01-16T13:57:44;5.80;;;2.90;;
62927;SDS011;51070;52.236;-0.892;2024-01-16T14:00:13;4.30;;;2.50;;
62927;SDS011;51070;52.236;-0.892;2024-01-16T14:05:16;8.10;;;2.70;;
62927;SDS011;51070;52.236;-0.892;2024-01-16T14:07:43;7.70;;;3.30;;
62927;SDS011;51070;52.236;-0.892;2024-01-16T14:10:11;6.30;;;2.80;;
62927;SDS011;51070;52.236;-0.892;2024-01-16T14:12:38;4.60;;;3.00;;
62927;SDS011;51070;52.236;-0.892;2024-01-16T14:15:05;4.90;;;2.90;;
62927;SDS011;51070;52.236;-0.892;2024-01-16T14:17:35;6.30;;;3.30;;
62927;SDS011;51070;52.236;-0.892;2024-01-16T14:20:00;8.30;;;3.20;;
62927;SDS011;51070;52.236;-0.892;2024-01-16T14:22:27;4.60;;;2.90;;
62927;SDS011;51070;52.236;-0.892;2024-01-16T14:24:53;9.60;;;2.30;;
62927;SDS011;51070;52.236;-0.892;2024-01-16T14:27:18;4.10;;;2.70;;
62927;SDS011;51070;52.236;-0.892;2024-01-16T14:29:44;6.20;;;2.70;;
62927;SDS011;51070;52.236;-0.892;2024-01-16T14:32:09;9.30;;;2.40;;
62927;SDS011;51070;52.236;-0.892;2024-01-16T14:34:35;4.10;;;2.40;;
62927;SDS011;51070;52.236;-0.892;2024-01-16T14:37:00;8.70;;;2.70;;
62927;SDS011;51070;52.236;-0.892;2024-01-16T14:39:26;3.50;;;2.00;;
62927;SDS011;51070;52.236;-0.892;2024-01-16T14:41:54;7.00;;;2.40;;
62927;SDS011;51070;52.236;-0.892;2024-01-16T14:44:20;5.80;;;2.60;;
62927;SDS011;51070;52.236;-0.892;2024-01-16T14:46:45;4.10;;;2.10;;
62927;SDS011;51070;52.236;-0.892;2024-01-16T14:49:10;6.70;;;3.10;;
62927;SDS011;51070;52.236;-0.892;2024-01-16T14:51:36;5.60;;;3.00;;
62927;SDS011;51070;52.236;-0.892;2024-01-16T14:54:03;6.40;;;3.80;;
62927;SDS011;51070;52.236;-0.892;2024-01-16T14:56:30;5.30;;;2.90;;